createdAt,value
2023-05-22T00:04:33.202Z,98644.13
2023-05-22T00:09:35.503Z,98683.78
2023-05-22T00:14:37.824Z,98701.81
2023-05-22T00:19:40.493Z,98706.84
2023-05-22T00:24:42.797Z,98719.81
2023-05-22T00:29:44.923Z,98696.56
2023-05-22T00:34:47.266Z,98672.00
2023-05-22T00:39:49.975Z,98701.81
2023-05-22T00:44:52.325Z,98682.00
2023-05-22T00:49:54.830Z,98697.66
2023-05-22T00:54:57.112Z,98740.13
2023-05-22T01:00:00.878Z,98711.81
2023-05-22T01:05:07.066Z,98731.00
2023-05-22T01:10:10.065Z,98727.44
2023-05-22T01:15:33.029Z,98722.59
2023-05-22T01:20:55.252Z,98692.88
2023-05-22T01:26:18.106Z,98675.41
2023-05-22T01:31:26.089Z,98700.88
2023-05-22T01:36:32.874Z,98705.56
2023-05-22T01:41:35.656Z,98717.56
2023-05-22T01:46:38.898Z,98706.94
2023-05-22T01:51:58.102Z,98760.44
2023-05-22T01:57:22.405Z,98698.78
2023-05-22T02:02:26.672Z,98639.59
2023-05-22T02:07:32.068Z,98702.97
2023-05-22T02:12:35.605Z,98723.94
2023-05-22T02:17:44.587Z,98705.81
2023-05-22T02:22:48.367Z,98690.38
2023-05-22T02:27:50.695Z,98715.16
2023-05-22T02:32:53.092Z,98702.41
2023-05-22T02:37:55.575Z,98662.84
2023-05-22T02:42:57.921Z,98696.63
2023-05-22T02:48:03.883Z,98659.50
2023-05-22T02:53:08.412Z,98681.38
2023-05-22T02:58:12.240Z,98714.38
2023-05-22T03:03:14.636Z,98687.53
2023-05-22T03:08:17.191Z,98681.34
2023-05-22T03:13:19.756Z,98689.31
2023-05-22T03:18:22.051Z,98637.06
2023-05-22T03:23:25.361Z,98666.78
2023-05-22T03:28:28.234Z,98669.28
2023-05-22T03:33:30.558Z,98659.41
2023-05-22T03:38:32.892Z,98697.03
2023-05-22T03:43:36.287Z,98666.41
2023-05-22T03:48:39.515Z,98651.97
2023-05-22T03:53:41.885Z,98700.84
2023-05-22T03:58:44.043Z,98719.81
2023-05-22T04:03:46.424Z,98702.56
2023-05-22T04:08:49.467Z,98704.31
2023-05-22T04:13:51.766Z,98698.41
2023-05-22T04:18:54.047Z,98723.06
2023-05-22T04:23:56.470Z,98713.38
2023-05-22T04:28:59.502Z,98716.72
2023-05-22T04:34:03.979Z,98748.16
2023-05-22T04:39:06.969Z,98732.66
2023-05-22T04:44:09.393Z,98779.88
2023-05-22T04:49:11.777Z,98821.63
2023-05-22T04:54:14.242Z,98908.66
2023-05-22T04:59:16.905Z,98889.88
2023-05-22T05:04:19.802Z,98856.09
2023-05-22T05:09:22.171Z,98937.59
2023-05-22T05:14:25.603Z,98872.47
2023-05-22T05:19:28.086Z,98923.91
2023-05-22T05:24:30.487Z,98983.50
2023-05-22T05:29:33.155Z,98866.75
2023-05-22T05:34:48.761Z,98939.25
2023-05-22T05:40:06.603Z,98790.34
2023-05-22T05:45:11.727Z,98838.09
2023-05-22T05:50:15.680Z,98817.03
2023-05-22T05:55:18.966Z,98859.34
2023-05-22T06:00:22.635Z,98820.16
2023-05-22T06:05:27.030Z,98781.63
2023-05-22T06:10:37.517Z,98727.00
2023-05-22T06:15:48.445Z,98796.47
2023-05-22T06:20:50.664Z,98784.13
2023-05-22T06:25:52.856Z,98822.00
2023-05-22T06:30:55.519Z,98820.72
2023-05-22T06:35:58.984Z,98815.50
2023-05-22T06:41:01.568Z,98822.06
2023-05-22T06:46:04.314Z,98824.09
2023-05-22T06:51:06.870Z,98835.34
2023-05-22T06:56:09.445Z,98851.25
2023-05-22T07:01:24.708Z,98840.97
2023-05-22T07:06:41.940Z,98831.94
2023-05-22T07:11:45.435Z,98807.44
2023-05-22T07:16:50.680Z,98799.19
2023-05-22T07:22:00.273Z,98845.03
2023-05-22T07:27:04.535Z,98780.72
2023-05-22T07:32:09.351Z,98796.31
2023-05-22T07:37:14.171Z,98826.00
2023-05-22T07:42:17.909Z,98810.72
2023-05-22T07:47:26.489Z,98810.72
2023-05-22T07:52:29.361Z,98816.44
2023-05-22T07:57:32.931Z,98821.09
2023-05-22T08:02:43.049Z,98812.88
2023-05-22T08:07:45.664Z,98823.47
2023-05-22T08:12:47.969Z,98897.69
2023-05-22T08:17:50.305Z,98829.28
2023-05-22T08:22:55.124Z,98793.16
2023-05-22T08:27:57.622Z,98853.97
2023-05-22T08:32:59.994Z,98829.94
2023-05-22T08:38:02.218Z,98863.31
2023-05-22T08:43:06.592Z,98838.13
2023-05-22T08:48:13.590Z,98816.41
2023-05-22T08:53:16.924Z,98876.06
2023-05-22T08:58:19.747Z,98862.09
2023-05-22T09:03:23.210Z,98825.91
2023-05-22T09:08:26.344Z,98822.78
2023-05-22T09:13:31.090Z,98867.44
2023-05-22T09:18:33.382Z,98833.06
2023-05-22T09:23:35.758Z,98885.28
2023-05-22T09:28:38.043Z,98889.34
2023-05-22T09:33:40.552Z,98839.19
2023-05-22T09:38:42.908Z,98846.16
2023-05-22T09:43:51.496Z,98847.94
2023-05-22T09:48:54.690Z,98885.47
2023-05-22T09:54:03.998Z,98906.31
2023-05-22T09:59:09.897Z,98853.97
2023-05-22T10:04:14.420Z,98914.00
2023-05-22T10:09:19.788Z,98871.47
2023-05-22T10:14:23.648Z,98837.88
2023-05-22T10:19:27.923Z,98833.09
2023-05-22T10:24:30.823Z,98853.56
2023-05-22T10:29:45.255Z,98910.22
2023-05-22T10:34:50.825Z,98867.97
2023-05-22T10:40:08.281Z,98833.28
2023-05-22T10:45:14.866Z,98820.25
2023-05-22T10:50:18.432Z,98818.47
2023-05-22T10:55:23.426Z,98851.50
2023-05-22T11:00:26.111Z,98805.25
2023-05-22T11:05:34.641Z,98826.41
2023-05-22T11:10:59.011Z,98816.88
2023-05-22T11:16:06.335Z,98808.91
2023-05-22T11:21:11.848Z,98747.94
2023-05-22T11:26:25.587Z,98779.38
2023-05-22T11:31:30.906Z,98822.03
2023-05-22T11:36:33.428Z,98837.78
2023-05-22T11:41:36.979Z,98787.09
2023-05-22T11:46:40.056Z,98747.03
2023-05-22T11:51:42.860Z,98819.41
2023-05-22T11:56:46.412Z,98761.66
2023-05-22T12:01:51.088Z,98815.38
2023-05-22T12:06:55.069Z,98812.00
2023-05-22T12:11:58.421Z,98729.16
2023-05-22T12:17:04.437Z,98703.03
2023-05-22T12:22:07.105Z,98677.63
2023-05-22T12:27:13.798Z,98662.47
2023-05-22T12:32:18.180Z,98691.75
2023-05-22T12:37:28.355Z,98681.81
2023-05-22T12:42:31.146Z,98826.38
2023-05-22T12:52:59.659Z,98780.16
2023-05-22T12:58:03.517Z,98667.56
2023-05-22T13:03:06.875Z,98702.31
2023-05-22T13:08:09.214Z,98686.84
2023-05-22T13:13:11.478Z,98695.69
2023-05-22T13:18:13.950Z,98641.84
2023-05-22T13:23:16.212Z,98708.25
2023-05-22T13:28:18.682Z,98753.78
2023-05-22T13:33:21.225Z,98685.94
2023-05-22T13:38:23.497Z,98687.94
2023-05-22T13:43:26.123Z,98703.25
2023-05-22T13:48:28.380Z,98667.34
2023-05-22T13:53:30.763Z,98768.56
2023-05-22T13:58:33.016Z,98816.41
2023-05-22T14:03:35.380Z,98638.88
2023-05-22T14:08:37.612Z,98711.38
2023-05-22T14:13:39.878Z,98680.13
2023-05-22T14:18:42.069Z,98684.84
2023-05-22T14:23:44.508Z,98741.38
2023-05-22T14:28:46.961Z,98725.22
2023-05-22T14:33:49.286Z,98624.31
2023-05-22T14:38:51.605Z,98759.78
2023-05-22T14:43:53.754Z,98659.72
2023-05-22T14:48:55.921Z,98647.41
2023-05-22T14:53:58.242Z,98652.66
2023-05-22T14:59:00.596Z,98738.72
2023-05-22T15:04:02.926Z,98718.41
2023-05-22T15:09:05.217Z,98679.78
2023-05-22T15:14:07.388Z,98647.53
2023-05-22T15:19:09.749Z,98647.53
2023-05-22T15:24:12.104Z,98691.09
2023-05-22T15:29:14.381Z,98601.28
2023-05-22T15:34:16.683Z,98633.75
2023-05-22T15:39:20.185Z,98714.25
2023-05-22T15:44:22.439Z,98678.28
2023-05-22T15:49:24.713Z,98645.41
2023-05-22T15:54:26.993Z,98635.19
2023-05-22T15:59:29.226Z,98661.59
2023-05-22T16:04:31.758Z,98620.03
2023-05-22T16:09:35.103Z,98692.44
2023-05-22T16:14:40.558Z,98710.09
2023-05-22T16:19:43.473Z,98643.91
2023-05-22T16:24:45.766Z,98653.81
2023-05-22T16:29:48.014Z,98687.09
2023-05-22T16:34:50.285Z,98653.00
2023-05-22T16:39:52.912Z,98629.53
2023-05-22T16:44:55.199Z,98606.66
2023-05-22T16:49:57.461Z,98648.38
2023-05-22T16:55:01.320Z,98612.13
2023-05-22T17:00:04.103Z,98636.72
2023-05-22T17:05:07.372Z,98588.91
2023-05-22T17:10:10.350Z,98694.72
2023-05-22T17:15:12.921Z,98616.38
2023-05-22T17:20:15.167Z,98623.91
2023-05-22T17:25:21.360Z,98692.94
2023-05-22T17:30:23.839Z,98624.91
2023-05-22T17:35:26.347Z,98697.38
2023-05-22T17:40:43.865Z,98611.28
2023-05-22T17:45:50.045Z,98603.94
2023-05-22T17:50:52.942Z,98642.88
2023-05-22T17:55:55.364Z,98669.59
2023-05-22T18:00:57.748Z,98643.09
2023-05-22T18:06:00.093Z,98645.25
2023-05-22T18:11:02.272Z,98611.31
2023-05-22T18:16:04.725Z,98673.88
2023-05-22T18:21:07.001Z,98662.88
2023-05-22T18:26:09.734Z,98635.84
2023-05-22T18:31:12.105Z,98637.91
2023-05-22T18:36:14.455Z,98618.94
2023-05-22T18:41:16.714Z,98659.44
2023-05-22T18:52:03.682Z,98691.75
2023-05-22T18:57:06.030Z,98710.91
2023-05-22T19:02:08.306Z,98719.97
2023-05-22T19:07:10.785Z,98663.59
2023-05-22T19:12:13.028Z,98701.78
2023-05-22T19:17:15.991Z,98720.84
2023-05-22T19:22:18.644Z,98695.22
2023-05-22T19:27:20.948Z,98738.78
2023-05-22T19:32:23.247Z,98739.72
2023-05-22T19:37:25.567Z,98719.94
2023-05-22T19:42:27.846Z,98746.44
2023-05-22T19:47:30.402Z,98708.09
2023-05-22T19:52:32.626Z,98717.72
2023-05-22T19:57:34.889Z,98694.16
2023-05-22T20:02:38.387Z,98758.44
2023-05-22T20:07:43.631Z,98732.66
2023-05-22T20:12:46.058Z,98754.09
2023-05-22T20:17:51.816Z,98734.78
2023-05-22T20:22:55.032Z,98698.22
2023-05-22T20:27:57.387Z,98687.72
2023-05-22T20:32:59.681Z,98715.41
2023-05-22T20:38:03.324Z,98684.41
2023-05-22T20:43:05.675Z,98659.69
2023-05-22T20:48:08.015Z,98726.09
2023-05-22T20:53:10.268Z,98684.94
2023-05-22T20:58:13.809Z,98725.75
2023-05-22T21:03:16.978Z,98701.41
2023-05-22T21:08:19.290Z,98708.81
2023-05-22T21:13:21.584Z,98717.38
2023-05-22T21:18:24.362Z,98748.25
2023-05-22T21:23:26.686Z,98748.78
2023-05-22T21:28:29.287Z,98727.13
2023-05-22T21:33:31.621Z,98765.47
2023-05-22T21:38:34.008Z,98763.84
2023-05-22T21:43:36.244Z,98743.25
2023-05-22T21:48:38.484Z,98716.25
2023-05-22T21:53:41.132Z,98758.09
2023-05-22T21:58:43.381Z,98768.72
2023-05-22T22:03:45.836Z,98770.91
2023-05-22T22:08:48.089Z,98823.91
2023-05-22T22:13:50.362Z,98734.31
2023-05-22T22:18:52.716Z,98806.00
2023-05-22T22:23:55.553Z,98788.69
2023-05-22T22:28:57.995Z,98786.81
2023-05-22T22:34:00.277Z,98788.69
2023-05-22T22:39:02.941Z,98803.16
2023-05-22T22:44:05.260Z,98821.19
2023-05-22T22:49:08.892Z,98774.16
2023-05-22T22:54:11.361Z,98827.50
2023-05-22T22:59:13.934Z,98801.59
2023-05-22T23:04:16.327Z,98845.50
2023-05-22T23:09:18.663Z,98839.59
2023-05-22T23:14:20.928Z,98767.03
2023-05-22T23:19:23.214Z,98796.97
2023-05-22T23:24:25.635Z,98734.31
2023-05-22T23:29:27.937Z,98734.28
2023-05-22T23:34:30.221Z,98745.22
2023-05-22T23:39:32.461Z,98830.28
2023-05-22T23:44:34.692Z,98810.38
2023-05-22T23:49:36.968Z,98833.91
2023-05-22T23:54:39.233Z,98761.91
2023-05-22T23:59:43.691Z,98780.78
